sensor_id;sensor_type;location;lat;lon;timestamp;temperature;humidity
16289;DHT22;26089;43.538;5.250;2023-05-14T00:02:06;11.80;99.90
16289;DHT22;26089;43.538;5.250;2023-05-14T00:04:33;11.80;99.90
16289;DHT22;26089;43.538;5.250;2023-05-14T00:07:01;11.70;99.90
16289;DHT22;26089;43.538;5.250;2023-05-14T00:09:29;11.70;99.90
16289;DHT22;26089;43.538;5.250;2023-05-14T00:11:55;11.70;99.90
16289;DHT22;26089;43.538;5.250;2023-05-14T00:14:22;11.70;99.90
16289;DHT22;26089;43.538;5.250;2023-05-14T00:16:49;11.70;99.90
16289;DHT22;26089;43.538;5.250;2023-05-14T00:19:16;11.60;99.90
16289;DHT22;26089;43.538;5.250;2023-05-14T00:21:43;11.60;99.90
16289;DHT22;26089;43.538;5.250;2023-05-14T00:24:12;11.60;99.90
16289;DHT22;26089;43.538;5.250;2023-05-14T00:26:38;11.50;99.90
16289;DHT22;26089;43.538;5.250;2023-05-14T00:29:05;11.50;99.90
16289;DHT22;26089;43.538;5.250;2023-05-14T00:31:32;11.50;99.90
16289;DHT22;26089;43.538;5.250;2023-05-14T00:33:59;11.40;99.90
16289;DHT22;26089;43.538;5.250;2023-05-14T00:36:26;11.40;99.90
16289;DHT22;26089;43.538;5.250;2023-05-14T00:38:53;11.40;99.90
16289;DHT22;26089;43.538;5.250;2023-05-14T00:41:21;11.90;99.90
16289;DHT22;26089;43.538;5.250;2023-05-14T00:43:49;11.50;99.90
16289;DHT22;26089;43.538;5.250;2023-05-14T00:46:16;11.40;99.90
16289;DHT22;26089;43.538;5.250;2023-05-14T00:48:43;11.40;99.90
16289;DHT22;26089;43.538;5.250;2023-05-14T00:51:10;11.10;99.90
16289;DHT22;26089;43.538;5.250;2023-05-14T00:53:38;11.40;99.90
16289;DHT22;26089;43.538;5.250;2023-05-14T00:56:05;11.50;99.90
16289;DHT22;26089;43.538;5.250;2023-05-14T00:58:34;11.40;99.90
16289;DHT22;26089;43.538;5.250;2023-05-14T01:01:01;11.40;99.90
16289;DHT22;26089;43.538;5.250;2023-05-14T01:03:29;11.40;99.90
16289;DHT22;26089;43.538;5.250;2023-05-14T01:06:00;11.30;99.90
16289;DHT22;26089;43.538;5.250;2023-05-14T01:08:35;11.30;99.90
16289;DHT22;26089;43.538;5.250;2023-05-14T01:11:13;11.30;99.90
16289;DHT22;26089;43.538;5.250;2023-05-14T01:13:50;11.30;99.90
16289;DHT22;26089;43.538;5.250;2023-05-14T01:16:19;11.30;99.90
16289;DHT22;26089;43.538;5.250;2023-05-14T01:18:49;11.30;99.90
16289;DHT22;26089;43.538;5.250;2023-05-14T01:21:36;11.30;99.90
16289;DHT22;26089;43.538;5.250;2023-05-14T01:24:05;11.30;99.90
16289;DHT22;26089;43.538;5.250;2023-05-14T01:26:33;11.30;99.90
16289;DHT22;26089;43.538;5.250;2023-05-14T01:29:05;11.30;99.90
16289;DHT22;26089;43.538;5.250;2023-05-14T01:31:34;11.20;99.90
16289;DHT22;26089;43.538;5.250;2023-05-14T01:34:03;11.20;99.90
16289;DHT22;26089;43.538;5.250;2023-05-14T01:36:31;11.20;99.90
16289;DHT22;26089;43.538;5.250;2023-05-14T01:39:01;11.20;99.90
16289;DHT22;26089;43.538;5.250;2023-05-14T01:41:30;11.20;99.90
16289;DHT22;26089;43.538;5.250;2023-05-14T01:43:57;11.20;99.90
16289;DHT22;26089;43.538;5.250;2023-05-14T01:46:24;11.20;99.90
16289;DHT22;26089;43.538;5.250;2023-05-14T01:48:51;11.20;99.90
16289;DHT22;26089;43.538;5.250;2023-05-14T01:51:18;11.20;99.90
16289;DHT22;26089;43.538;5.250;2023-05-14T01:53:45;11.20;99.90
16289;DHT22;26089;43.538;5.250;2023-05-14T01:56:13;11.20;99.90
16289;DHT22;26089;43.538;5.250;2023-05-14T01:58:40;11.20;99.90
16289;DHT22;26089;43.538;5.250;2023-05-14T02:01:07;11.20;99.90
16289;DHT22;26089;43.538;5.250;2023-05-14T02:03:34;11.20;99.90
16289;DHT22;26089;43.538;5.250;2023-05-14T02:06:01;11.20;99.90
16289;DHT22;26089;43.538;5.250;2023-05-14T02:08:28;11.20;99.90
16289;DHT22;26089;43.538;5.250;2023-05-14T02:10:55;11.20;99.90
16289;DHT22;26089;43.538;5.250;2023-05-14T02:13:24;11.20;99.90
16289;DHT22;26089;43.538;5.250;2023-05-14T02:15:51;11.30;99.90
16289;DHT22;26089;43.538;5.250;2023-05-14T02:18:18;11.20;99.90
16289;DHT22;26089;43.538;5.250;2023-05-14T02:20:45;11.50;99.90
16289;DHT22;26089;43.538;5.250;2023-05-14T02:23:12;11.20;99.90
16289;DHT22;26089;43.538;5.250;2023-05-14T02:25:39;11.30;99.90
16289;DHT22;26089;43.538;5.250;2023-05-14T02:28:06;11.30;99.90
16289;DHT22;26089;43.538;5.250;2023-05-14T02:30:34;11.30;99.90
16289;DHT22;26089;43.538;5.250;2023-05-14T02:33:01;11.30;99.90
16289;DHT22;26089;43.538;5.250;2023-05-14T02:35:28;11.30;99.90
16289;DHT22;26089;43.538;5.250;2023-05-14T02:37:55;11.30;99.90
16289;DHT22;26089;43.538;5.250;2023-05-14T02:40:24;11.30;99.90
16289;DHT22;26089;43.538;5.250;2023-05-14T02:42:51;11.50;99.90
16289;DHT22;26089;43.538;5.250;2023-05-14T02:45:18;11.30;99.90
16289;DHT22;26089;43.538;5.250;2023-05-14T02:47:47;11.30;99.90
16289;DHT22;26089;43.538;5.250;2023-05-14T02:50:14;11.30;99.90
16289;DHT22;26089;43.538;5.250;2023-05-14T02:52:41;11.20;99.90
16289;DHT22;26089;43.538;5.250;2023-05-14T02:55:09;11.20;99.90
16289;DHT22;26089;43.538;5.250;2023-05-14T02:57:36;11.20;99.90
16289;DHT22;26089;43.538;5.250;2023-05-14T03:00:04;11.20;99.90
16289;DHT22;26089;43.538;5.250;2023-05-14T03:02:31;11.20;99.90
16289;DHT22;26089;43.538;5.250;2023-05-14T03:04:59;11.30;99.90
16289;DHT22;26089;43.538;5.250;2023-05-14T03:07:26;11.40;99.90
16289;DHT22;26089;43.538;5.250;2023-05-14T03:09:53;11.30;99.90
16289;DHT22;26089;43.538;5.250;2023-05-14T03:12:20;11.30;99.90
16289;DHT22;26089;43.538;5.250;2023-05-14T03:14:47;11.30;99.90
16289;DHT22;26089;43.538;5.250;2023-05-14T03:17:14;11.30;99.90
16289;DHT22;26089;43.538;5.250;2023-05-14T03:19:41;11.30;99.90
16289;DHT22;26089;43.538;5.250;2023-05-14T03:22:09;11.30;99.90
16289;DHT22;26089;43.538;5.250;2023-05-14T03:24:37;11.30;99.90
16289;DHT22;26089;43.538;5.250;2023-05-14T03:27:04;11.50;99.90
16289;DHT22;26089;43.538;5.250;2023-05-14T03:29:31;11.30;99.90
16289;DHT22;26089;43.538;5.250;2023-05-14T03:31:58;11.20;99.90
16289;DHT22;26089;43.538;5.250;2023-05-14T03:34:25;11.30;99.90
16289;DHT22;26089;43.538;5.250;2023-05-14T03:36:52;11.30;99.90
16289;DHT22;26089;43.538;5.250;2023-05-14T03:39:20;11.30;99.90
16289;DHT22;26089;43.538;5.250;2023-05-14T03:41:47;11.30;99.90
16289;DHT22;26089;43.538;5.250;2023-05-14T03:44:14;11.20;99.90
16289;DHT22;26089;43.538;5.250;2023-05-14T03:46:41;11.30;99.90
16289;DHT22;26089;43.538;5.250;2023-05-14T03:49:09;11.90;99.90
16289;DHT22;26089;43.538;5.250;2023-05-14T03:51:35;11.20;99.90
16289;DHT22;26089;43.538;5.250;2023-05-14T03:54:03;11.40;99.90
16289;DHT22;26089;43.538;5.250;2023-05-14T03:56:31;11.20;99.90
16289;DHT22;26089;43.538;5.250;2023-05-14T03:58:58;11.20;99.90
16289;DHT22;26089;43.538;5.250;2023-05-14T04:01:25;10.80;99.90
16289;DHT22;26089;43.538;5.250;2023-05-14T04:03:52;11.30;99.90
16289;DHT22;26089;43.538;5.250;2023-05-14T04:06:19;11.30;99.90
16289;DHT22;26089;43.538;5.250;2023-05-14T04:08:46;11.40;99.90
16289;DHT22;26089;43.538;5.250;2023-05-14T04:11:13;11.30;99.90
16289;DHT22;26089;43.538;5.250;2023-05-14T04:13:41;11.30;99.90
16289;DHT22;26089;43.538;5.250;2023-05-14T04:16:08;11.40;99.90
16289;DHT22;26089;43.538;5.250;2023-05-14T04:18:35;11.40;99.90
16289;DHT22;26089;43.538;5.250;2023-05-14T04:21:02;11.40;99.90
16289;DHT22;26089;43.538;5.250;2023-05-14T04:23:29;11.40;99.90
16289;DHT22;26089;43.538;5.250;2023-05-14T04:25:57;11.40;99.90
16289;DHT22;26089;43.538;5.250;2023-05-14T04:28:24;11.40;99.90
16289;DHT22;26089;43.538;5.250;2023-05-14T04:30:52;11.40;99.90
16289;DHT22;26089;43.538;5.250;2023-05-14T04:33:19;11.40;99.90
16289;DHT22;26089;43.538;5.250;2023-05-14T04:35:46;11.50;99.90
16289;DHT22;26089;43.538;5.250;2023-05-14T04:38:13;11.50;99.90
16289;DHT22;26089;43.538;5.250;2023-05-14T04:40:41;11.60;99.90
16289;DHT22;26089;43.538;5.250;2023-05-14T04:43:08;11.70;99.90
16289;DHT22;26089;43.538;5.250;2023-05-14T04:45:35;11.70;99.90
16289;DHT22;26089;43.538;5.250;2023-05-14T04:48:04;11.80;99.90
16289;DHT22;26089;43.538;5.250;2023-05-14T04:50:32;11.90;99.90
16289;DHT22;26089;43.538;5.250;2023-05-14T04:52:59;11.90;99.90
16289;DHT22;26089;43.538;5.250;2023-05-14T04:55:26;11.90;99.90
16289;DHT22;26089;43.538;5.250;2023-05-14T04:57:53;12.00;99.90
16289;DHT22;26089;43.538;5.250;2023-05-14T05:00:20;12.00;99.90
16289;DHT22;26089;43.538;5.250;2023-05-14T05:02:47;12.10;99.90
16289;DHT22;26089;43.538;5.250;2023-05-14T05:05:16;12.20;99.90
16289;DHT22;26089;43.538;5.250;2023-05-14T05:07:43;12.20;99.90
16289;DHT22;26089;43.538;5.250;2023-05-14T05:10:10;12.20;99.90
16289;DHT22;26089;43.538;5.250;2023-05-14T05:12:37;12.30;99.90
16289;DHT22;26089;43.538;5.250;2023-05-14T05:15:05;12.30;99.90
16289;DHT22;26089;43.538;5.250;2023-05-14T05:17:32;12.40;99.90
16289;DHT22;26089;43.538;5.250;2023-05-14T05:19:59;12.40;99.90
16289;DHT22;26089;43.538;5.250;2023-05-14T05:22:27;12.50;99.90
16289;DHT22;26089;43.538;5.250;2023-05-14T05:24:54;12.50;99.90
16289;DHT22;26089;43.538;5.250;2023-05-14T05:27:21;12.80;99.90
16289;DHT22;26089;43.538;5.250;2023-05-14T05:29:48;12.60;99.90
16289;DHT22;26089;43.538;5.250;2023-05-14T05:32:15;12.70;99.90
16289;DHT22;26089;43.538;5.250;2023-05-14T05:34:42;12.80;99.90
16289;DHT22;26089;43.538;5.250;2023-05-14T05:37:09;12.90;99.90
16289;DHT22;26089;43.538;5.250;2023-05-14T05:39:40;13.10;99.90
16289;DHT22;26089;43.538;5.250;2023-05-14T05:42:07;13.20;99.90
16289;DHT22;26089;43.538;5.250;2023-05-14T05:44:33;13.30;99.90
16289;DHT22;26089;43.538;5.250;2023-05-14T05:47:00;13.30;99.90
16289;DHT22;26089;43.538;5.250;2023-05-14T05:49:27;13.30;99.90
16289;DHT22;26089;43.538;5.250;2023-05-14T05:51:54;13.30;99.90
16289;DHT22;26089;43.538;5.250;2023-05-14T05:54:22;13.40;99.90
16289;DHT22;26089;43.538;5.250;2023-05-14T05:56:51;13.50;99.90
16289;DHT22;26089;43.538;5.250;2023-05-14T05:59:18;13.60;99.90
16289;DHT22;26089;43.538;5.250;2023-05-14T06:01:45;13.50;99.90
16289;DHT22;26089;43.538;5.250;2023-05-14T06:04:12;13.50;99.90
16289;DHT22;26089;43.538;5.250;2023-05-14T06:06:39;13.50;99.90
16289;DHT22;26089;43.538;5.250;2023-05-14T06:09:06;13.60;99.90
16289;DHT22;26089;43.538;5.250;2023-05-14T06:11:34;13.70;99.90
16289;DHT22;26089;43.538;5.250;2023-05-14T06:14:03;13.80;99.90
16289;DHT22;26089;43.538;5.250;2023-05-14T06:16:30;14.10;99.90
16289;DHT22;26089;43.538;5.250;2023-05-14T06:18:57;14.50;99.90
16289;DHT22;26089;43.538;5.250;2023-05-14T06:21:24;15.70;99.90
16289;DHT22;26089;43.538;5.250;2023-05-14T06:23:51;17.10;99.90
16289;DHT22;26089;43.538;5.250;2023-05-14T06:26:18;18.20;99.90
16289;DHT22;26089;43.538;5.250;2023-05-14T06:28:45;19.00;99.90
16289;DHT22;26089;43.538;5.250;2023-05-14T06:31:14;19.60;99.90
16289;DHT22;26089;43.538;5.250;2023-05-14T06:33:41;19.80;99.90
16289;DHT22;26089;43.538;5.250;2023-05-14T06:36:08;19.60;99.90
16289;DHT22;26089;43.538;5.250;2023-05-14T06:38:35;19.90;99.90
16289;DHT22;26089;43.538;5.250;2023-05-14T06:41:02;20.00;99.90
16289;DHT22;26089;43.538;5.250;2023-05-14T06:43:29;20.10;99.90
16289;DHT22;26089;43.538;5.250;2023-05-14T06:45:56;20.40;99.90
16289;DHT22;26089;43.538;5.250;2023-05-14T06:48:25;20.40;99.90
16289;DHT22;26089;43.538;5.250;2023-05-14T06:50:54;20.40;99.90
16289;DHT22;26089;43.538;5.250;2023-05-14T06:53:21;20.00;99.90
16289;DHT22;26089;43.538;5.250;2023-05-14T06:55:48;20.10;99.90
16289;DHT22;26089;43.538;5.250;2023-05-14T06:58:15;20.60;99.90
16289;DHT22;26089;43.538;5.250;2023-05-14T07:00:42;21.00;99.90
16289;DHT22;26089;43.538;5.250;2023-05-14T07:03:09;20.60;99.90
16289;DHT22;26089;43.538;5.250;2023-05-14T07:05:37;20.60;99.90
16289;DHT22;26089;43.538;5.250;2023-05-14T07:08:05;20.30;99.90
16289;DHT22;26089;43.538;5.250;2023-05-14T07:10:32;20.40;99.90
16289;DHT22;26089;43.538;5.250;2023-05-14T07:12:59;20.90;99.90
16289;DHT22;26089;43.538;5.250;2023-05-14T07:15:27;21.10;99.90
16289;DHT22;26089;43.538;5.250;2023-05-14T07:17:54;21.30;99.90
16289;DHT22;26089;43.538;5.250;2023-05-14T07:20:21;21.40;99.90
16289;DHT22;26089;43.538;5.250;2023-05-14T07:22:52;21.50;99.90
16289;DHT22;26089;43.538;5.250;2023-05-14T07:25:18;21.00;99.90
16289;DHT22;26089;43.538;5.250;2023-05-14T07:27:45;21.30;99.90
16289;DHT22;26089;43.538;5.250;2023-05-14T07:30:13;21.50;99.90
16289;DHT22;26089;43.538;5.250;2023-05-14T07:32:40;21.30;99.90
16289;DHT22;26089;43.538;5.250;2023-05-14T07:35:07;21.20;99.90
16289;DHT22;26089;43.538;5.250;2023-05-14T07:37:36;21.70;99.90
16289;DHT22;26089;43.538;5.250;2023-05-14T07:40:06;22.00;99.90
16289;DHT22;26089;43.538;5.250;2023-05-14T07:42:33;21.70;99.90
16289;DHT22;26089;43.538;5.250;2023-05-14T07:45:00;21.60;99.90
16289;DHT22;26089;43.538;5.250;2023-05-14T07:47:27;21.20;99.90
16289;DHT22;26089;43.538;5.250;2023-05-14T07:49:54;20.70;99.90
16289;DHT22;26089;43.538;5.250;2023-05-14T07:52:21;20.50;99.90
16289;DHT22;26089;43.538;5.250;2023-05-14T07:54:50;21.00;99.90
16289;DHT22;26089;43.538;5.250;2023-05-14T07:57:18;21.10;99.90
16289;DHT22;26089;43.538;5.250;2023-05-14T07:59:47;21.20;99.90
16289;DHT22;26089;43.538;5.250;2023-05-14T08:02:14;21.40;99.90
16289;DHT22;26089;43.538;5.250;2023-05-14T08:04:42;21.30;99.90
16289;DHT22;26089;43.538;5.250;2023-05-14T08:07:09;21.30;99.90
16289;DHT22;26089;43.538;5.250;2023-05-14T08:09:36;20.60;99.90
16289;DHT22;26089;43.538;5.250;2023-05-14T08:12:04;20.90;99.90
16289;DHT22;26089;43.538;5.250;2023-05-14T08:14:33;20.60;99.90
16289;DHT22;26089;43.538;5.250;2023-05-14T08:17:00;20.70;99.90
16289;DHT22;26089;43.538;5.250;2023-05-14T08:19:27;20.60;99.90
16289;DHT22;26089;43.538;5.250;2023-05-14T08:21:54;21.10;99.90
16289;DHT22;26089;43.538;5.250;2023-05-14T08:24:21;21.30;99.90
16289;DHT22;26089;43.538;5.250;2023-05-14T08:26:48;21.30;99.90
16289;DHT22;26089;43.538;5.250;2023-05-14T08:29:15;21.40;99.90
16289;DHT22;26089;43.538;5.250;2023-05-14T08:31:44;21.60;99.90
16289;DHT22;26089;43.538;5.250;2023-05-14T08:34:10;21.90;99.90
16289;DHT22;26089;43.538;5.250;2023-05-14T08:36:38;21.90;99.90
16289;DHT22;26089;43.538;5.250;2023-05-14T08:39:05;22.00;99.90
16289;DHT22;26089;43.538;5.250;2023-05-14T08:41:33;21.80;99.90
16289;DHT22;26089;43.538;5.250;2023-05-14T08:44:05;21.90;99.90
16289;DHT22;26089;43.538;5.250;2023-05-14T08:46:35;22.20;99.90
16289;DHT22;26089;43.538;5.250;2023-05-14T08:49:12;22.20;99.90
16289;DHT22;26089;43.538;5.250;2023-05-14T08:51:41;21.70;99.90
16289;DHT22;26089;43.538;5.250;2023-05-14T08:54:09;22.00;99.90
16289;DHT22;26089;43.538;5.250;2023-05-14T08:56:39;22.00;99.90
16289;DHT22;26089;43.538;5.250;2023-05-14T08:59:07;22.50;99.90
16289;DHT22;26089;43.538;5.250;2023-05-14T09:01:36;22.90;99.90
16289;DHT22;26089;43.538;5.250;2023-05-14T09:04:05;23.00;99.90
16289;DHT22;26089;43.538;5.250;2023-05-14T09:06:34;22.10;99.90
16289;DHT22;26089;43.538;5.250;2023-05-14T09:09:02;21.10;99.90
16289;DHT22;26089;43.538;5.250;2023-05-14T09:11:29;20.60;99.90
16289;DHT22;26089;43.538;5.250;2023-05-14T09:13:56;20.90;99.90
16289;DHT22;26089;43.538;5.250;2023-05-14T09:16:24;20.90;99.90
16289;DHT22;26089;43.538;5.250;2023-05-14T09:18:53;21.10;99.90
16289;DHT22;26089;43.538;5.250;2023-05-14T09:21:21;21.50;99.90
16289;DHT22;26089;43.538;5.250;2023-05-14T09:23:52;21.80;99.90
16289;DHT22;26089;43.538;5.250;2023-05-14T09:26:23;22.00;99.90
16289;DHT22;26089;43.538;5.250;2023-05-14T09:28:53;22.60;99.90
16289;DHT22;26089;43.538;5.250;2023-05-14T09:31:21;23.20;99.90
16289;DHT22;26089;43.538;5.250;2023-05-14T09:33:51;23.70;99.90
16289;DHT22;26089;43.538;5.250;2023-05-14T09:36:18;23.60;99.90
16289;DHT22;26089;43.538;5.250;2023-05-14T09:38:47;23.80;99.90
16289;DHT22;26089;43.538;5.250;2023-05-14T09:41:14;23.80;99.90
16289;DHT22;26089;43.538;5.250;2023-05-14T09:43:41;23.70;99.90
16289;DHT22;26089;43.538;5.250;2023-05-14T09:46:08;23.80;99.90
16289;DHT22;26089;43.538;5.250;2023-05-14T09:48:35;23.30;99.90
16289;DHT22;26089;43.538;5.250;2023-05-14T09:51:02;23.30;99.90
16289;DHT22;26089;43.538;5.250;2023-05-14T09:53:31;23.40;99.90
16289;DHT22;26089;43.538;5.250;2023-05-14T09:56:00;23.30;99.90
16289;DHT22;26089;43.538;5.250;2023-05-14T09:58:27;23.50;99.90
16289;DHT22;26089;43.538;5.250;2023-05-14T10:00:56;23.10;99.90
16289;DHT22;26089;43.538;5.250;2023-05-14T10:03:24;22.60;99.90
16289;DHT22;26089;43.538;5.250;2023-05-14T10:05:52;23.10;99.90
16289;DHT22;26089;43.538;5.250;2023-05-14T10:08:23;23.50;99.90
16289;DHT22;26089;43.538;5.250;2023-05-14T10:10:53;23.90;99.90
16289;DHT22;26089;43.538;5.250;2023-05-14T10:13:25;24.10;99.90
16289;DHT22;26089;43.538;5.250;2023-05-14T10:15:58;24.40;99.90
16289;DHT22;26089;43.538;5.250;2023-05-14T10:18:30;24.30;99.90
16289;DHT22;26089;43.538;5.250;2023-05-14T10:21:03;23.30;99.90
16289;DHT22;26089;43.538;5.250;2023-05-14T10:23:31;22.90;99.90
16289;DHT22;26089;43.538;5.250;2023-05-14T10:25:59;23.90;99.90
16289;DHT22;26089;43.538;5.250;2023-05-14T10:28:28;23.50;99.90
16289;DHT22;26089;43.538;5.250;2023-05-14T10:30:55;22.90;99.90
16289;DHT22;26089;43.538;5.250;2023-05-14T10:33:22;22.50;99.90
16289;DHT22;26089;43.538;5.250;2023-05-14T10:35:57;21.90;99.90
16289;DHT22;26089;43.538;5.250;2023-05-14T10:38:26;21.30;99.90
16289;DHT22;26089;43.538;5.250;2023-05-14T10:41:00;22.50;99.90
16289;DHT22;26089;43.538;5.250;2023-05-14T10:43:30;23.50;99.90
16289;DHT22;26089;43.538;5.250;2023-05-14T10:45:58;24.00;99.90
16289;DHT22;26089;43.538;5.250;2023-05-14T10:48:26;23.90;99.90
16289;DHT22;26089;43.538;5.250;2023-05-14T10:50:53;23.00;99.90
16289;DHT22;26089;43.538;5.250;2023-05-14T10:53:30;23.90;99.90
16289;DHT22;26089;43.538;5.250;2023-05-14T10:56:02;24.20;99.90
16289;DHT22;26089;43.538;5.250;2023-05-14T10:58:34;24.50;99.90
16289;DHT22;26089;43.538;5.250;2023-05-14T11:01:02;25.10;99.90
16289;DHT22;26089;43.538;5.250;2023-05-14T11:03:31;25.00;99.90
16289;DHT22;26089;43.538;5.250;2023-05-14T11:05:59;24.80;99.90
16289;DHT22;26089;43.538;5.250;2023-05-14T11:08:28;23.90;99.90
16289;DHT22;26089;43.538;5.250;2023-05-14T11:10:56;23.30;99.90
16289;DHT22;26089;43.538;5.250;2023-05-14T11:13:25;23.50;99.90
16289;DHT22;26089;43.538;5.250;2023-05-14T11:15:54;24.20;99.90
16289;DHT22;26089;43.538;5.250;2023-05-14T11:18:28;25.30;99.90
16289;DHT22;26089;43.538;5.250;2023-05-14T11:20:57;25.80;99.90
16289;DHT22;26089;43.538;5.250;2023-05-14T11:23:25;26.40;99.90
16289;DHT22;26089;43.538;5.250;2023-05-14T11:25:53;26.30;99.90
16289;DHT22;26089;43.538;5.250;2023-05-14T11:28:20;26.50;99.90
16289;DHT22;26089;43.538;5.250;2023-05-14T11:30:47;26.90;99.90
16289;DHT22;26089;43.538;5.250;2023-05-14T11:33:16;26.20;99.90
16289;DHT22;26089;43.538;5.250;2023-05-14T11:35:44;24.70;99.90
16289;DHT22;26089;43.538;5.250;2023-05-14T11:38:15;24.80;99.90
16289;DHT22;26089;43.538;5.250;2023-05-14T11:40:46;24.80;99.90
16289;DHT22;26089;43.538;5.250;2023-05-14T11:43:17;25.50;99.90
16289;DHT22;26089;43.538;5.250;2023-05-14T11:45:48;25.80;99.90
16289;DHT22;26089;43.538;5.250;2023-05-14T11:48:17;25.90;99.90
16289;DHT22;26089;43.538;5.250;2023-05-14T11:50:45;25.40;99.90
16289;DHT22;26089;43.538;5.250;2023-05-14T11:53:16;24.10;99.90
16289;DHT22;26089;43.538;5.250;2023-05-14T11:55:43;23.60;99.90
16289;DHT22;26089;43.538;5.250;2023-05-14T11:58:11;24.70;99.90
16289;DHT22;26089;43.538;5.250;2023-05-14T12:00:38;26.00;99.90
16289;DHT22;26089;43.538;5.250;2023-05-14T12:03:06;26.90;99.90
16289;DHT22;26089;43.538;5.250;2023-05-14T12:05:38;26.50;99.90
16289;DHT22;26089;43.538;5.250;2023-05-14T12:08:19;26.60;99.90
16289;DHT22;26089;43.538;5.250;2023-05-14T12:10:46;24.90;99.90
16289;DHT22;26089;43.538;5.250;2023-05-14T12:13:14;25.30;99.90
16289;DHT22;26089;43.538;5.250;2023-05-14T12:15:44;26.00;99.90
16289;DHT22;26089;43.538;5.250;2023-05-14T12:18:11;26.50;99.90
16289;DHT22;26089;43.538;5.250;2023-05-14T12:20:45;26.10;99.90
16289;DHT22;26089;43.538;5.250;2023-05-14T12:23:12;26.90;99.90
16289;DHT22;26089;43.538;5.250;2023-05-14T12:25:39;27.10;99.90
16289;DHT22;26089;43.538;5.250;2023-05-14T12:28:24;27.60;99.90
16289;DHT22;26089;43.538;5.250;2023-05-14T12:30:55;26.90;99.90
16289;DHT22;26089;43.538;5.250;2023-05-14T12:33:22;26.90;99.90
16289;DHT22;26089;43.538;5.250;2023-05-14T12:35:52;27.20;99.90
16289;DHT22;26089;43.538;5.250;2023-05-14T12:38:22;27.00;99.90
16289;DHT22;26089;43.538;5.250;2023-05-14T12:40:48;27.10;99.90
16289;DHT22;26089;43.538;5.250;2023-05-14T12:43:15;25.90;99.90
16289;DHT22;26089;43.538;5.250;2023-05-14T12:45:42;24.80;99.90
16289;DHT22;26089;43.538;5.250;2023-05-14T12:48:10;25.50;99.90
16289;DHT22;26089;43.538;5.250;2023-05-14T12:50:37;26.00;99.90
16289;DHT22;26089;43.538;5.250;2023-05-14T12:53:06;26.40;99.90
16289;DHT22;26089;43.538;5.250;2023-05-14T12:55:33;26.70;99.90
16289;DHT22;26089;43.538;5.250;2023-05-14T12:58:00;26.60;99.90
16289;DHT22;26089;43.538;5.250;2023-05-14T13:00:27;27.20;99.90
16289;DHT22;26089;43.538;5.250;2023-05-14T13:02:54;26.90;99.90
16289;DHT22;26089;43.538;5.250;2023-05-14T13:05:21;27.40;99.90
16289;DHT22;26089;43.538;5.250;2023-05-14T13:07:51;27.70;99.90
16289;DHT22;26089;43.538;5.250;2023-05-14T13:10:20;27.50;99.90
16289;DHT22;26089;43.538;5.250;2023-05-14T13:12:47;27.90;99.90
16289;DHT22;26089;43.538;5.250;2023-05-14T13:15:15;27.50;99.90
16289;DHT22;26089;43.538;5.250;2023-05-14T13:17:42;26.90;99.90
16289;DHT22;26089;43.538;5.250;2023-05-14T13:20:09;26.70;99.90
16289;DHT22;26089;43.538;5.250;2023-05-14T13:22:36;26.30;99.90
16289;DHT22;26089;43.538;5.250;2023-05-14T13:25:04;25.00;99.90
16289;DHT22;26089;43.538;5.250;2023-05-14T13:27:32;25.30;99.90
16289;DHT22;26089;43.538;5.250;2023-05-14T13:30:00;25.40;99.90
16289;DHT22;26089;43.538;5.250;2023-05-14T13:32:28;25.70;99.90
16289;DHT22;26089;43.538;5.250;2023-05-14T13:34:55;26.20;99.90
16289;DHT22;26089;43.538;5.250;2023-05-14T13:37:23;26.90;99.90
16289;DHT22;26089;43.538;5.250;2023-05-14T13:39:51;26.50;99.90
16289;DHT22;26089;43.538;5.250;2023-05-14T13:42:18;26.00;99.90
16289;DHT22;26089;43.538;5.250;2023-05-14T13:44:46;26.30;99.90
16289;DHT22;26089;43.538;5.250;2023-05-14T13:47:13;26.70;99.90
16289;DHT22;26089;43.538;5.250;2023-05-14T13:49:40;26.60;99.90
16289;DHT22;26089;43.538;5.250;2023-05-14T13:52:07;26.30;99.90
16289;DHT22;26089;43.538;5.250;2023-05-14T13:54:34;26.50;99.90
16289;DHT22;26089;43.538;5.250;2023-05-14T13:57:01;26.40;99.90
16289;DHT22;26089;43.538;5.250;2023-05-14T13:59:28;26.20;99.90
16289;DHT22;26089;43.538;5.250;2023-05-14T14:01:56;26.60;99.90
16289;DHT22;26089;43.538;5.250;2023-05-14T14:04:23;26.50;99.90
16289;DHT22;26089;43.538;5.250;2023-05-14T14:06:53;26.80;99.90
16289;DHT22;26089;43.538;5.250;2023-05-14T14:09:20;27.10;99.90
16289;DHT22;26089;43.538;5.250;2023-05-14T14:11:47;26.30;99.90
16289;DHT22;26089;43.538;5.250;2023-05-14T14:14:15;26.40;99.90
16289;DHT22;26089;43.538;5.250;2023-05-14T14:16:42;26.30;99.90
16289;DHT22;26089;43.538;5.250;2023-05-14T14:19:10;26.60;99.90
16289;DHT22;26089;43.538;5.250;2023-05-14T14:21:37;26.50;99.90
16289;DHT22;26089;43.538;5.250;2023-05-14T14:24:07;26.20;99.90
16289;DHT22;26089;43.538;5.250;2023-05-14T14:26:34;25.50;99.90
16289;DHT22;26089;43.538;5.250;2023-05-14T14:29:01;25.30;99.90
16289;DHT22;26089;43.538;5.250;2023-05-14T14:31:28;25.30;99.90
16289;DHT22;26089;43.538;5.250;2023-05-14T14:33:55;25.30;99.90
16289;DHT22;26089;43.538;5.250;2023-05-14T14:36:23;25.80;99.90
16289;DHT22;26089;43.538;5.250;2023-05-14T14:38:50;26.30;99.90
16289;DHT22;26089;43.538;5.250;2023-05-14T14:41:17;26.20;99.90
16289;DHT22;26089;43.538;5.250;2023-05-14T14:43:44;25.90;99.90
16289;DHT22;26089;43.538;5.250;2023-05-14T14:46:11;26.00;99.90
16289;DHT22;26089;43.538;5.250;2023-05-14T14:48:38;25.70;99.90
16289;DHT22;26089;43.538;5.250;2023-05-14T14:51:07;25.50;99.90
16289;DHT22;26089;43.538;5.250;2023-05-14T14:53:35;25.40;99.90
16289;DHT22;26089;43.538;5.250;2023-05-14T14:56:03;25.80;99.90
16289;DHT22;26089;43.538;5.250;2023-05-14T14:58:30;25.70;99.90
16289;DHT22;26089;43.538;5.250;2023-05-14T15:00:57;25.50;99.90
16289;DHT22;26089;43.538;5.250;2023-05-14T15:03:24;25.20;99.90
16289;DHT22;26089;43.538;5.250;2023-05-14T15:05:51;25.30;99.90
16289;DHT22;26089;43.538;5.250;2023-05-14T15:08:18;24.90;99.90
16289;DHT22;26089;43.538;5.250;2023-05-14T15:10:47;24.40;99.90
16289;DHT22;26089;43.538;5.250;2023-05-14T15:13:14;24.10;99.90
16289;DHT22;26089;43.538;5.250;2023-05-14T15:15:42;24.30;99.90
16289;DHT22;26089;43.538;5.250;2023-05-14T15:18:09;24.30;99.90
16289;DHT22;26089;43.538;5.250;2023-05-14T15:20:36;24.30;99.90
16289;DHT22;26089;43.538;5.250;2023-05-14T15:23:03;24.30;99.90
16289;DHT22;26089;43.538;5.250;2023-05-14T15:25:30;24.50;99.90
16289;DHT22;26089;43.538;5.250;2023-05-14T15:27:58;24.90;99.90
16289;DHT22;26089;43.538;5.250;2023-05-14T15:30:25;25.20;99.90
16289;DHT22;26089;43.538;5.250;2023-05-14T15:32:53;24.90;99.90
16289;DHT22;26089;43.538;5.250;2023-05-14T15:35:20;24.90;99.90